»·PEaware :: N333ZS KCMA-KSNA

N333ZS :: KCMA-KSNA

FLIGHT INFORMATION

Flight Status: Arrived
Operator: Privately registered:
United States
More flights under this callsign
Pilot: Judd H. (29974)
Aircraft: CESSNA 182 SKYLANE
(C182)
More flights by this aircraft type
Origin: KCMA Camarillo
United States
Destination: KSNA John Wayne-Orange Co
United States
More flights between these airports :: More routes between these airports
Route: +LAX
File this flight plan on PilotEdge
Remarks:
Altitude:
(Current/Filed)
5,500ft
Speed:
(Current/Filed)
120kts
Departed: 14-Aug-20 01:34 PM
Arrived: 14-Aug-20 02:17 PM
Distance/Time
Traveled:
69nm/0:43
Distance/Time
To Go:
Arrived

Flight Plot

Page will automatically refresh every two minutes.

Flight plan parsing failed; only flown route is shown


Map Options




Map Legend


Flown Route
Filed Route
Departure Airport
Arrival Airport
Navaid (VOR, NDB)
Fix

Horizontal Profiles

Position Reports

Time Latitude Longitude Heading Altitude Ground
Speed
14-Aug-20 13:14 34.210344 -119.075318 270 78ft 0kts
14-Aug-20 13:15 34.210344 -119.075318 270 78ft 0kts
14-Aug-20 13:16 34.210344 -119.075318 270 78ft 0kts
14-Aug-20 13:17 34.210344 -119.075318 270 78ft 0kts
14-Aug-20 13:18 34.210344 -119.075318 270 78ft 0kts
14-Aug-20 13:19 34.210344 -119.075318 270 78ft 0kts
14-Aug-20 13:20 34.210344 -119.075318 270 78ft 0kts
14-Aug-20 13:21 34.210344 -119.075318 270 78ft 0kts
14-Aug-20 13:22 34.210344 -119.075318 270 78ft 0kts
14-Aug-20 13:23 34.210344 -119.075322 270 78ft 0kts
14-Aug-20 13:24 34.210344 -119.075326 270 78ft 0kts
14-Aug-20 13:25 34.210344 -119.075330 270 78ft 0kts
14-Aug-20 13:26 34.210355 -119.075739 275 78ft 0kts
14-Aug-20 13:27 34.210965 -119.076482 275 78ft 5kts
14-Aug-20 13:28 34.210904 -119.082719 268 78ft 18kts
14-Aug-20 13:29 34.212847 -119.084606 358 78ft 1kts
14-Aug-20 13:30 34.212893 -119.084608 356 78ft 0kts
14-Aug-20 13:31 34.212894 -119.084609 356 78ft 0kts
14-Aug-20 13:32 34.213268 -119.084600 1 78ft 13kts
14-Aug-20 13:33 34.213781 -119.094576 267 175ft 89kts
14-Aug-20 13:34 34.203036 -119.116108 166 851ft 99kts
14-Aug-20 13:35 34.198475 -119.080880 89 1088ft 126kts
14-Aug-20 13:36 34.192908 -119.042860 108 1569ft 105kts
14-Aug-20 13:37 34.186146 -119.009941 106 2263ft 96kts
14-Aug-20 13:38 34.180932 -118.978493 100 2811ft 105kts
14-Aug-20 13:39 34.176839 -118.943079 99 3325ft 102kts
14-Aug-20 13:40 34.172844 -118.909880 103 3903ft 96kts
14-Aug-20 13:41 34.166804 -118.878994 104 4511ft 95kts
14-Aug-20 13:42 34.158573 -118.843096 105 4850ft 113kts
14-Aug-20 13:43 34.150606 -118.806732 104 5329ft 111kts
14-Aug-20 13:44 34.142092 -118.768413 105 5494ft 127kts
14-Aug-20 13:45 34.134132 -118.725325 100 5490ft 133kts
14-Aug-20 13:46 34.126966 -118.681130 99 5489ft 134kts
14-Aug-20 13:47 34.122664 -118.636430 92 5487ft 134kts
14-Aug-20 13:48 34.120925 -118.591412 92 5487ft 134kts
14-Aug-20 13:49 34.119309 -118.546538 99 5477ft 133kts
14-Aug-20 13:50 34.096328 -118.515126 153 5480ft 128kts
14-Aug-20 13:51 34.065136 -118.494505 152 5472ft 127kts
14-Aug-20 13:52 34.033930 -118.475647 160 5471ft 126kts
14-Aug-20 13:53 34.000290 -118.462845 163 5470ft 126kts
14-Aug-20 13:54 33.967227 -118.448477 161 5471ft 126kts
14-Aug-20 13:55 33.934623 -118.432712 148 5467ft 127kts
14-Aug-20 13:56 33.907266 -118.405705 138 5471ft 128kts
14-Aug-20 13:57 33.881256 -118.376113 138 5471ft 128kts
14-Aug-20 13:58 33.855075 -118.346754 139 5470ft 129kts
14-Aug-20 13:59 33.828320 -118.317416 139 5469ft 130kts
14-Aug-20 14:00 33.801361 -118.287925 139 5471ft 131kts
14-Aug-20 14:01 33.774344 -118.258415 139 5470ft 131kts
14-Aug-20 14:02 33.750868 -118.224483 126 5469ft 132kts
14-Aug-20 14:03 33.735058 -118.191013 118 5038ft 96kts
14-Aug-20 14:04 33.722313 -118.160139 119 4545ft 115kts
14-Aug-20 14:05 33.705127 -118.121441 119 3950ft 142kts
14-Aug-20 14:06 33.686826 -118.080736 118 3470ft 118kts
14-Aug-20 14:07 33.673171 -118.049763 118 3469ft 99kts
14-Aug-20 14:08 33.660201 -118.021115 118 3470ft 96kts
14-Aug-20 14:09 33.658466 -117.989714 78 3208ft 115kts
14-Aug-20 14:10 33.661148 -117.948716 85 2623ft 124kts
14-Aug-20 14:12 33.668414 -117.909145 61 2121ft 120kts
14-Aug-20 14:13 33.672702 -117.874179 99 1583ft 105kts
14-Aug-20 14:14 33.676898 -117.850122 34 1248ft 74kts
14-Aug-20 14:15 33.695225 -117.836542 331 1017ft 76kts
14-Aug-20 14:16 33.685542 -117.860706 208 293ft 91kts
14-Aug-20 14:17 33.673964 -117.867926 122 59ft 8kts
14-Aug-20 14:18 33.671747 -117.868295 210 59ft 13kts
14-Aug-20 14:19 33.670468 -117.867558 39 59ft 0kts
14-Aug-20 14:20 33.670469 -117.867557 39 59ft 0kts
14-Aug-20 14:21 33.670469 -117.867557 39 59ft 0kts
14-Aug-20 14:22 33.670469 -117.867557 39 59ft 0kts
14-Aug-20 14:23 33.670469 -117.867557 39 59ft 0kts
14-Aug-20 14:24 33.670469 -117.867557 39 59ft 0kts
14-Aug-20 14:25 33.670469 -117.867557 39 59ft 0kts
14-Aug-20 14:26 33.670469 -117.867557 39 59ft 0kts
14-Aug-20 14:27 33.670469 -117.867557 39 59ft 0kts
14-Aug-20 14:28 33.670469 -117.867557 39 59ft 0kts
14-Aug-20 14:29 33.670469 -117.867557 39 59ft 0kts
14-Aug-20 14:29 33.670469 -117.867557 39 59ft 0kts
14-Aug-20 14:31 33.670469 -117.867557 39 59ft 0kts

Navigation Log

Ident Type
Flight plan parsing failed, navigation log unavailable